This is the latest recevied weather packets stored in our database for station/object KD4VIF. If no packets are shown the sender has not sent any weather packets the latest 10 day(s).
| Time | Temp. | Humidity | Pressure | Rain* | Wind** | Luminosity | Snow |
|---|---|---|---|---|---|---|---|
| 1778004999 | 25° C | 100% | 1015.1 hPa | 0 mm | 0 m/s | - | - |
| 1778004398 | 25° C | 100% | 1015 hPa | 0 mm | 0.89 m/s, 345° | - | - |
| 1778004098 | 25° C | 100% | 1015.3 hPa | 0 mm | 0.45 m/s, 277° | - | - |
| 1778003798 | 25.56° C | 100% | 1015.2 hPa | 0 mm | 0.89 m/s, 344° | - | - |
| 1778003199 | 25° C | 100% | 1015.2 hPa | 0 mm | 0.45 m/s, 254° | - | - |
| 1778002898 | 24.44° C | 100% | 1015.4 hPa | 0 mm | 0 m/s | - | - |
| 1778002598 | 24.44° C | 100% | 1015.3 hPa | 0 mm | 0 m/s | - | - |
| 1778000198 | 23.89° C | 100% | 1015.7 hPa | 0 mm | 0 m/s | - | - |
| 1777999898 | 23.89° C | 100% | 1015.9 hPa | 0 mm | 0.45 m/s, 310° | - | - |
| 1777999298 | 23.89° C | 100% | 1015.9 hPa | 0 mm | 1.34 m/s, 206° | - | - |
| 1777998697 | 23.89° C | 100% | 1016 hPa | 0 mm | 0.89 m/s, 219° | - | - |
| 1777998398 | 23.33° C | 100% | 1016 hPa | 0 mm | 0.89 m/s, 285° | - | - |
| 1777997198 | 23.33° C | 100% | 1016.3 hPa | 0 mm | 0 m/s | - | - |
| 1777996898 | 22.78° C | 100% | 1016.4 hPa | 0 mm | 0.45 m/s, 127° | - | - |
| 1777996597 | 22.78° C | 100% | 1016.6 hPa | 0 mm | 0.45 m/s, 305° | - | - |
| 1777996298 | 22.22° C | 100% | 1016.5 hPa | 0 mm | 0 m/s | - | - |
| 1777995998 | 22.78° C | 100% | 1016.6 hPa | 0 mm | 0.89 m/s, 337° | - | - |
| 1777995698 | 22.22° C | 100% | 1016.6 hPa | 0 mm | 0.45 m/s, 295° | - | - |
| 1777995397 | 22.22° C | 100% | 1016.7 hPa | 0 mm | 0 m/s | - | - |
| 1777995098 | 21.67° C | 100% | 1016.7 hPa | 0 mm | 0 m/s | - | - |
| 1777994797 | 21.67° C | 100% | 1016.7 hPa | 0 mm | 0.89 m/s, 292° | - | - |
| 1777994498 | 21.67° C | 100% | 1016.7 hPa | 0 mm | 0.89 m/s, 181° | - | - |
| 1777994199 | 21.67° C | 100% | 1016.7 hPa | 0 mm | 0 m/s | - | - |
| 1777993598 | 21.11° C | 100% | 1016.8 hPa | 0 mm | 1.34 m/s, 277° | - | - |
| 1777993297 | 21.11° C | 100% | 1016.7 hPa | 0 mm | 0.89 m/s, 208° | - | - |
* Rain latest hour (hover to see other rain measurements)
** Current wind speed in m/s (hover to see current wind gust speed)